createdAt,value
2022-09-05T00:01:43.895Z,92.10
2022-09-05T00:04:25.436Z,91.84
2022-09-05T00:07:34.328Z,91.41
2022-09-05T00:10:18.738Z,91.77
2022-09-05T00:12:48.072Z,92.07
2022-09-05T00:15:20.515Z,92.65
2022-09-05T00:19:30.509Z,92.61
2022-09-05T00:24:25.375Z,92.82
2022-09-05T00:24:34.204Z,92.19
2022-09-05T00:27:04.598Z,92.03
2022-09-05T00:31:06.690Z,91.87
2022-09-05T00:32:51.171Z,92.11
2022-09-05T00:35:37.377Z,92.03
2022-09-05T00:38:36.434Z,92.18
2022-09-05T00:41:05.245Z,91.89
2022-09-05T00:43:33.517Z,92.10
2022-09-05T00:46:00.694Z,92.00
2022-09-05T00:48:34.766Z,91.99
2022-09-05T00:51:07.854Z,92.21
2022-09-05T00:53:34.983Z,92.47
2022-09-05T00:56:21.228Z,92.32
2022-09-05T00:59:07.641Z,92.26
2022-09-05T01:02:07.676Z,92.68
2022-09-05T01:04:40.793Z,95.33
2022-09-05T01:07:11.483Z,96.72
2022-09-05T01:09:44.913Z,96.22
2022-09-05T01:12:27.394Z,95.07
2022-09-05T01:14:58.335Z,93.33
2022-09-05T01:17:25.700Z,93.06
2022-09-05T01:20:19.523Z,93.72
2022-09-05T01:23:08.495Z,94.04
2022-09-05T01:25:36.109Z,94.27
2022-09-05T01:29:14.178Z,94.36
2022-09-05T01:33:58.505Z,94.20
2022-09-05T01:36:40.913Z,93.86
2022-09-05T01:40:11.229Z,93.76
2022-09-05T01:42:31.688Z,93.62
2022-09-05T01:45:16.839Z,93.63
2022-09-05T01:48:07.258Z,93.92
2022-09-05T01:51:00.420Z,93.72
2022-09-05T01:53:32.625Z,93.61
2022-09-05T01:56:20.111Z,93.40
2022-09-05T01:59:02.636Z,93.14
2022-09-05T02:01:35.641Z,93.38
2022-09-05T02:04:08.770Z,93.27
2022-09-05T02:06:44.106Z,93.37
2022-09-05T02:09:30.359Z,93.22
2022-09-05T02:11:58.339Z,92.70
2022-09-05T02:14:51.931Z,92.35
2022-09-05T02:17:50.082Z,91.88
2022-09-05T02:20:24.329Z,91.54
2022-09-05T02:22:54.557Z,91.66
2022-09-05T02:26:00.412Z,91.59
2022-09-05T02:28:16.651Z,91.50
2022-09-05T02:30:47.486Z,91.73
2022-09-05T02:33:34.874Z,91.83
2022-09-05T02:36:08.077Z,91.84
2022-09-05T02:39:44.556Z,92.17
2022-09-05T02:45:10.986Z,92.61
2022-09-05T02:45:16.997Z,92.40
2022-09-05T02:48:04.163Z,92.75
2022-09-05T02:57:25.740Z,92.70
2022-09-05T02:57:33.104Z,92.86
2022-09-05T02:57:40.976Z,92.94
2022-09-05T02:59:36.852Z,92.47
2022-09-05T03:02:26.434Z,92.39
2022-09-05T03:05:13.855Z,92.66
2022-09-05T03:07:58.808Z,92.66
2022-09-05T03:10:53.500Z,92.56
2022-09-05T03:13:27.505Z,92.13
2022-09-05T03:16:10.849Z,91.90
2022-09-05T03:18:41.452Z,91.95
2022-09-05T03:21:15.537Z,91.80
2022-09-05T03:23:59.487Z,91.74
2022-09-05T03:26:35.787Z,91.65
2022-09-05T03:29:23.218Z,92.13
2022-09-05T03:32:09.054Z,91.95
2022-09-05T03:34:42.348Z,92.21
2022-09-05T03:37:09.444Z,92.17
2022-09-05T03:39:55.014Z,91.99
2022-09-05T03:42:37.346Z,92.34
2022-09-05T03:45:16.486Z,92.33
2022-09-05T03:48:27.648Z,92.12
2022-09-05T03:57:08.884Z,92.06
2022-09-05T03:57:14.635Z,91.97
2022-09-05T03:57:25.336Z,92.25
2022-09-05T03:59:45.582Z,92.17
2022-09-05T04:07:17.638Z,92.11
2022-09-05T04:08:17.423Z,91.99
2022-09-05T04:08:25.310Z,91.64
2022-09-05T04:11:03.887Z,91.77
2022-09-05T04:14:05.243Z,91.73
2022-09-05T04:17:04.748Z,92.03
2022-09-05T04:19:49.134Z,92.88
2022-09-05T04:22:20.365Z,93.06
2022-09-05T04:25:02.757Z,92.39
2022-09-05T04:27:39.236Z,91.63
2022-09-05T04:30:38.937Z,91.90
2022-09-05T04:33:02.946Z,92.59
2022-09-05T04:35:40.488Z,91.75
2022-09-05T04:38:14.653Z,90.90
2022-09-05T04:40:42.051Z,90.18
2022-09-05T04:43:09.236Z,88.99
2022-09-05T04:45:40.662Z,88.76
2022-09-05T04:48:08.214Z,87.37
2022-09-05T04:50:43.444Z,86.12
2022-09-05T04:53:29.608Z,85.89
2022-09-05T04:55:57.980Z,83.19
2022-09-05T04:58:43.644Z,84.57
2022-09-05T05:06:04.679Z,82.67
2022-09-05T05:06:17.542Z,83.25
2022-09-05T05:07:20.865Z,81.78
2022-09-05T05:09:49.336Z,82.38
2022-09-05T05:17:59.665Z,81.33
2022-09-05T05:18:07.789Z,81.22
2022-09-05T05:18:53.129Z,81.27
2022-09-05T05:21:24.355Z,79.79
2022-09-05T05:23:51.446Z,79.12
2022-09-05T05:26:21.385Z,78.29
2022-09-05T05:28:54.754Z,77.58
2022-09-05T05:31:26.320Z,77.95
2022-09-05T05:33:53.618Z,76.43
2022-09-05T05:36:23.405Z,77.47
2022-09-05T05:38:53.607Z,75.45
2022-09-05T05:41:20.746Z,75.01
2022-09-05T05:43:47.926Z,76.69
2022-09-05T05:46:24.941Z,74.81
2022-09-05T05:48:57.401Z,74.31
2022-09-05T05:52:02.677Z,73.19
2022-09-05T05:54:38.065Z,72.44
2022-09-05T05:57:15.185Z,72.40
2022-09-05T06:00:01.052Z,70.76
2022-09-05T06:02:43.719Z,70.02
2022-09-05T06:05:14.033Z,70.44
2022-09-05T06:07:55.883Z,70.35
2022-09-05T06:15:01.765Z,67.06
2022-09-05T06:15:06.286Z,69.46
2022-09-05T06:16:48.394Z,66.50
2022-09-05T06:19:54.549Z,65.25
2022-09-05T06:22:27.373Z,64.93
2022-09-05T06:25:11.082Z,61.51
2022-09-05T06:28:17.905Z,61.92
2022-09-05T06:30:40.421Z,61.38
2022-09-05T06:33:14.732Z,60.17
2022-09-05T06:36:04.247Z,59.75
2022-09-05T06:38:50.961Z,60.31
2022-09-05T06:41:34.072Z,62.01
2022-09-05T06:44:04.646Z,56.92
2022-09-05T06:46:54.704Z,53.20
2022-09-05T06:49:32.524Z,51.77
2022-09-05T06:52:11.738Z,54.39
2022-09-05T06:55:12.270Z,56.00
2022-09-05T06:57:48.436Z,51.99
2022-09-05T07:00:38.105Z,50.63
2022-09-05T07:03:24.137Z,51.68
2022-09-05T07:05:52.298Z,51.40
2022-09-05T07:08:35.112Z,48.70
2022-09-05T07:11:15.672Z,46.48
2022-09-05T07:13:56.431Z,48.73
2022-09-05T07:16:38.142Z,44.50
2022-09-05T07:19:14.256Z,45.40
2022-09-05T07:21:44.708Z,45.30
2022-09-05T07:24:34.643Z,43.00
2022-09-05T07:27:05.249Z,44.83
2022-09-05T07:29:37.193Z,45.13
2022-09-05T07:32:06.384Z,44.75
2022-09-05T07:34:34.438Z,45.79
2022-09-05T07:37:15.442Z,41.48
2022-09-05T07:39:44.748Z,41.05
2022-09-05T07:42:14.360Z,43.18
2022-09-05T07:44:44.523Z,45.66
2022-09-05T07:47:15.424Z,42.57
2022-09-05T07:50:24.774Z,41.56
2022-09-05T07:56:49.004Z,41.31
2022-09-05T07:57:01.035Z,39.28
2022-09-05T07:58:12.604Z,38.58
2022-09-05T08:00:39.743Z,37.88
2022-09-05T08:03:10.948Z,38.22
2022-09-05T08:05:43.388Z,37.34
2022-09-05T08:08:12.441Z,36.60
2022-09-05T08:11:23.993Z,37.47
2022-09-05T08:13:46.558Z,38.02
2022-09-05T08:16:19.531Z,38.02
2022-09-05T08:19:02.176Z,38.81
2022-09-05T08:21:39.848Z,37.76
2022-09-05T08:24:13.862Z,35.39
2022-09-05T08:26:47.279Z,35.91
2022-09-05T08:29:17.753Z,35.41
2022-09-05T08:32:08.493Z,35.10
2022-09-05T08:34:44.824Z,33.10
2022-09-05T08:37:22.473Z,30.99
2022-09-05T08:40:10.047Z,28.15
2022-09-05T08:46:10.187Z,25.99
2022-09-05T08:46:43.473Z,26.98
2022-09-05T08:48:45.106Z,26.11
2022-09-05T08:51:26.327Z,26.76
2022-09-05T08:54:05.542Z,26.26
2022-09-05T08:56:38.505Z,25.29
2022-09-05T08:59:27.585Z,27.51
2022-09-05T09:02:44.900Z,26.28
2022-09-05T09:05:01.587Z,24.53
2022-09-05T09:07:50.785Z,23.30
2022-09-05T09:10:25.718Z,24.94
2022-09-05T09:13:07.327Z,24.64
2022-09-05T09:15:38.699Z,24.60
2022-09-05T09:18:12.213Z,23.73
2022-09-05T09:20:45.047Z,21.83
2022-09-05T09:23:32.079Z,23.99
2022-09-05T09:26:05.616Z,24.13
2022-09-05T09:28:50.235Z,23.47
2022-09-05T09:31:30.911Z,23.10
2022-09-05T09:33:58.453Z,23.47
2022-09-05T09:36:36.513Z,22.01
2022-09-05T09:39:38.322Z,22.24
2022-09-05T09:42:45.521Z,22.76
2022-09-05T09:45:33.400Z,22.43
2022-09-05T09:48:09.969Z,22.73
2022-09-05T09:50:37.711Z,25.38
2022-09-05T09:53:30.660Z,24.89
2022-09-05T09:56:06.766Z,25.78
2022-09-05T09:58:40.494Z,24.51
2022-09-05T10:01:36.739Z,23.93
2022-09-05T10:08:12.291Z,23.56
2022-09-05T10:10:48.638Z,23.67
2022-09-05T10:10:51.625Z,22.91
2022-09-05T10:13:40.795Z,22.96
2022-09-05T10:16:17.486Z,22.93
2022-09-05T10:18:50.279Z,25.90
2022-09-05T10:21:26.487Z,26.30
2022-09-05T10:23:53.661Z,27.30
2022-09-05T10:26:20.778Z,25.01
2022-09-05T10:29:30.144Z,24.07
2022-09-05T10:35:08.587Z,21.42
2022-09-05T10:35:14.790Z,22.87
2022-09-05T10:37:41.248Z,24.11
2022-09-05T10:40:09.850Z,25.51
2022-09-05T10:42:43.529Z,25.36
2022-09-05T10:45:38.014Z,25.26
2022-09-05T10:48:23.238Z,25.60
2022-09-05T10:51:03.319Z,25.68
2022-09-05T10:53:39.794Z,23.49
2022-09-05T10:56:16.325Z,24.79
2022-09-05T11:01:22.057Z,22.50
2022-09-05T11:02:30.418Z,21.90
2022-09-05T11:04:49.862Z,24.80
2022-09-05T11:07:29.615Z,25.87
2022-09-05T11:10:02.712Z,25.55
2022-09-05T11:12:32.888Z,23.78
2022-09-05T11:15:02.682Z,23.49
2022-09-05T11:17:37.765Z,23.74
2022-09-05T11:20:22.321Z,23.78
2022-09-05T11:23:11.752Z,22.20
2022-09-05T11:25:41.037Z,21.23
2022-09-05T11:28:19.083Z,21.46
2022-09-05T11:30:51.131Z,21.96
2022-09-05T11:36:54.912Z,21.51
2022-09-05T11:39:56.620Z,21.46
2022-09-05T11:40:24.543Z,21.91
2022-09-05T11:42:28.183Z,22.61
2022-09-05T11:45:14.170Z,23.43
2022-09-05T11:47:59.425Z,23.86
2022-09-05T11:50:29.855Z,24.35
2022-09-05T11:53:08.962Z,25.02
2022-09-05T11:55:56.613Z,25.07
2022-09-05T11:58:45.069Z,23.85
2022-09-05T12:01:42.827Z,22.95
2022-09-05T12:04:17.249Z,20.73
2022-09-05T12:06:57.327Z,22.68
2022-09-05T12:09:29.626Z,22.79
2022-09-05T12:12:34.233Z,21.53
2022-09-05T12:15:24.943Z,23.72
2022-09-05T12:18:19.253Z,25.76
2022-09-05T12:20:59.035Z,25.44
2022-09-05T12:23:53.912Z,25.37
2022-09-05T12:27:39.058Z,25.65
2022-09-05T12:29:29.455Z,26.07
2022-09-05T12:33:45.479Z,25.59
2022-09-05T12:36:12.399Z,25.88
2022-09-05T12:40:54.757Z,26.15
2022-09-05T12:41:35.915Z,25.09
2022-09-05T12:44:36.753Z,24.84
2022-09-05T12:46:10.930Z,25.82
2022-09-05T12:49:07.003Z,26.36
2022-09-05T12:51:46.247Z,27.01
2022-09-05T12:54:34.167Z,26.78
2022-09-05T12:59:33.483Z,26.61
2022-09-05T13:03:09.723Z,27.40
2022-09-05T13:03:13.478Z,27.05
2022-09-05T13:05:26.908Z,23.70
2022-09-05T13:07:58.343Z,23.68
2022-09-05T13:14:46.186Z,24.00
2022-09-05T13:14:54.322Z,23.74
2022-09-05T13:16:23.291Z,23.56
2022-09-05T13:18:51.969Z,22.76
2022-09-05T13:21:23.155Z,23.22
2022-09-05T13:23:50.922Z,23.14
2022-09-05T13:26:27.458Z,22.90
2022-09-05T13:29:09.889Z,22.25
2022-09-05T13:37:55.064Z,22.83
2022-09-05T13:37:58.802Z,22.90
2022-09-05T13:38:11.250Z,22.32
2022-09-05T13:40:19.865Z,21.92
2022-09-05T13:42:56.931Z,24.09
2022-09-05T13:45:24.119Z,24.80
2022-09-05T13:48:00.343Z,23.77
2022-09-05T13:50:31.393Z,23.52
2022-09-05T13:53:00.662Z,22.41
2022-09-05T13:55:38.110Z,22.59
2022-09-05T13:58:07.377Z,23.21
2022-09-05T14:00:41.221Z,23.27
2022-09-05T14:03:31.612Z,24.47
2022-09-05T14:06:36.587Z,23.62
2022-09-05T14:09:37.193Z,23.44
2022-09-05T14:12:17.729Z,23.75
2022-09-05T14:17:53.993Z,27.59
2022-09-05T14:20:43.081Z,28.01
2022-09-05T14:23:13.466Z,27.85
2022-09-05T14:25:47.743Z,25.46
2022-09-05T14:28:18.317Z,25.93
2022-09-05T14:33:32.507Z,27.76
2022-09-05T14:37:38.732Z,29.76
2022-09-05T14:37:54.597Z,29.76
2022-09-05T14:39:57.969Z,32.44
2022-09-05T14:42:31.428Z,33.10
2022-09-05T14:45:17.374Z,33.52
2022-09-05T14:47:47.509Z,34.07
2022-09-05T14:50:27.705Z,33.64
2022-09-05T14:55:58.756Z,37.83
2022-09-05T15:02:44.502Z,37.50
2022-09-05T15:02:55.255Z,36.47
2022-09-05T15:04:40.877Z,39.90
2022-09-05T15:07:20.727Z,41.75
2022-09-05T15:12:16.177Z,40.55
2022-09-05T15:12:45.509Z,41.36
2022-09-05T15:15:25.878Z,42.71
2022-09-05T15:17:54.118Z,42.60
2022-09-05T15:20:31.759Z,45.08
2022-09-05T15:22:58.849Z,47.72
2022-09-05T15:25:43.056Z,47.90
2022-09-05T15:28:22.290Z,47.12
2022-09-05T15:30:57.195Z,44.07
2022-09-05T15:33:25.681Z,45.31
2022-09-05T15:35:53.458Z,50.06
2022-09-05T15:38:38.700Z,42.95
2022-09-05T15:41:23.805Z,41.87
2022-09-05T15:43:53.978Z,43.21
2022-09-05T15:46:22.740Z,44.78
2022-09-05T15:48:54.256Z,44.46
2022-09-05T15:51:32.712Z,45.87
2022-09-05T15:54:02.202Z,44.14
2022-09-05T15:56:30.165Z,45.96
2022-09-05T15:58:58.095Z,47.38
2022-09-05T16:01:58.957Z,46.81
2022-09-05T16:10:18.166Z,46.98
2022-09-05T16:10:39.696Z,46.68
2022-09-05T16:10:42.375Z,47.04
2022-09-05T16:12:51.619Z,48.73
2022-09-05T16:19:13.704Z,50.00
2022-09-05T16:23:20.433Z,52.63
2022-09-05T16:23:32.505Z,56.20
2022-09-05T16:23:58.068Z,55.48
2022-09-05T16:26:28.749Z,54.98
2022-09-05T16:29:00.277Z,55.46
2022-09-05T16:31:30.479Z,58.45
2022-09-05T16:33:57.671Z,58.89
2022-09-05T16:36:27.311Z,59.12
2022-09-05T16:39:05.303Z,58.64
2022-09-05T16:41:38.883Z,62.56
2022-09-05T16:44:11.301Z,59.68
2022-09-05T16:46:42.656Z,62.47
2022-09-05T16:49:41.699Z,62.17
2022-09-05T16:52:17.026Z,62.70
2022-09-05T16:54:47.679Z,62.95
2022-09-05T16:57:16.894Z,62.28
2022-09-05T16:59:44.648Z,60.89
2022-09-05T17:02:14.853Z,60.91
2022-09-05T17:05:03.228Z,61.04
2022-09-05T17:07:55.487Z,60.48
2022-09-05T17:10:27.100Z,60.97
2022-09-05T17:12:55.602Z,60.41
2022-09-05T17:15:28.191Z,61.29
2022-09-05T17:18:21.249Z,61.61
2022-09-05T17:20:47.182Z,61.80
2022-09-05T17:27:57.000Z,62.40
2022-09-05T17:29:24.590Z,61.75
2022-09-05T17:32:19.085Z,63.74
2022-09-05T17:34:49.884Z,62.67
2022-09-05T17:37:18.141Z,64.00
2022-09-05T17:40:04.338Z,64.27
2022-09-05T17:42:36.357Z,65.23
2022-09-05T17:45:03.477Z,64.80
2022-09-05T17:47:49.395Z,65.61
2022-09-05T17:50:28.189Z,66.39
2022-09-05T17:53:25.036Z,67.05
2022-09-05T17:55:52.645Z,67.69
2022-09-05T17:58:49.234Z,66.99
2022-09-05T18:01:18.992Z,67.10
2022-09-05T18:03:49.114Z,66.34
2022-09-05T18:06:16.332Z,67.04
2022-09-05T18:08:46.302Z,68.28
2022-09-05T18:11:14.550Z,67.22
2022-09-05T18:13:54.048Z,67.08
2022-09-05T18:16:31.691Z,66.79
2022-09-05T18:19:32.821Z,66.97
2022-09-05T18:22:06.504Z,67.25
2022-09-05T18:24:36.741Z,67.71
2022-09-05T18:27:44.012Z,67.62
2022-09-05T18:30:08.567Z,67.22
2022-09-05T18:33:54.115Z,67.43
2022-09-05T18:35:58.343Z,68.13
2022-09-05T18:38:50.818Z,68.50
2022-09-05T18:41:21.725Z,68.53
2022-09-05T18:44:12.336Z,68.65
2022-09-05T18:46:49.940Z,69.50
2022-09-05T18:50:21.699Z,69.65
2022-09-05T18:52:15.033Z,69.78
2022-09-05T18:54:43.395Z,69.53
2022-09-05T18:57:26.425Z,70.28
2022-09-05T19:00:00.520Z,69.69
2022-09-05T19:02:42.797Z,69.39
2022-09-05T19:05:28.512Z,70.71
2022-09-05T19:07:59.741Z,70.48
2022-09-05T19:10:34.848Z,70.96
2022-09-05T19:13:12.990Z,70.44
2022-09-05T19:15:48.161Z,70.48
2022-09-05T19:18:25.777Z,71.06
2022-09-05T19:21:11.915Z,69.98
2022-09-05T19:23:45.587Z,69.69
2022-09-05T19:26:12.719Z,69.95
2022-09-05T19:36:59.088Z,70.76
2022-09-05T19:37:07.574Z,70.65
2022-09-05T19:37:10.401Z,70.83
2022-09-05T19:37:37.424Z,70.02
2022-09-05T19:43:09.484Z,70.52
2022-09-05T19:47:34.265Z,69.93
2022-09-05T19:47:41.667Z,70.31
2022-09-05T19:48:26.226Z,70.12
2022-09-05T19:50:54.321Z,69.63
2022-09-05T19:53:21.525Z,69.74
2022-09-05T19:55:48.835Z,70.76
2022-09-05T19:58:19.459Z,70.42
2022-09-05T20:01:00.341Z,69.96
2022-09-05T20:03:34.572Z,69.83
2022-09-05T20:06:30.109Z,69.19
2022-09-05T20:09:07.773Z,70.35
2022-09-05T20:11:45.156Z,70.26
2022-09-05T20:14:29.179Z,69.05
2022-09-05T20:16:58.262Z,68.98
2022-09-05T20:19:32.426Z,69.78
2022-09-05T20:22:14.349Z,70.65
2022-09-05T20:24:49.256Z,70.50
2022-09-05T20:27:16.975Z,71.02
2022-09-05T20:29:54.849Z,71.00
2022-09-05T20:32:27.823Z,70.92
2022-09-05T20:41:43.335Z,71.33
2022-09-05T20:43:16.800Z,71.39
2022-09-05T20:43:29.408Z,71.58
2022-09-05T20:43:52.371Z,72.49
2022-09-05T20:50:26.057Z,72.41
2022-09-05T20:54:07.117Z,72.23
2022-09-05T20:54:16.977Z,72.71
2022-09-05T20:55:40.353Z,73.40
2022-09-05T20:58:09.421Z,73.24
2022-09-05T21:00:37.774Z,73.79
2022-09-05T21:03:08.537Z,73.93
2022-09-05T21:05:36.625Z,74.87
2022-09-05T21:08:15.133Z,75.47
2022-09-05T21:10:55.675Z,76.08
2022-09-05T21:13:23.578Z,75.85
2022-09-05T21:15:52.977Z,76.14
2022-09-05T21:18:22.541Z,76.26
2022-09-05T21:20:56.395Z,76.93
2022-09-05T21:23:36.642Z,76.85
2022-09-05T21:26:05.301Z,77.01
2022-09-05T21:28:37.235Z,76.41
2022-09-05T21:31:12.864Z,76.39
2022-09-05T21:33:45.956Z,75.97
2022-09-05T21:36:13.737Z,76.30
2022-09-05T21:38:41.136Z,76.43
2022-09-05T21:41:08.401Z,76.51
2022-09-05T21:47:34.700Z,76.38
2022-09-05T21:47:47.849Z,75.80
2022-09-05T21:49:15.307Z,76.42
2022-09-05T21:51:48.034Z,76.75
2022-09-05T21:57:45.257Z,77.01
2022-09-05T21:59:16.155Z,77.17
2022-09-05T21:59:55.617Z,77.13
2022-09-05T22:02:23.799Z,77.25
2022-09-05T22:05:02.941Z,77.60
2022-09-05T22:07:32.704Z,78.36
2022-09-05T22:10:00.890Z,78.62
2022-09-05T22:12:41.669Z,78.99
2022-09-05T22:15:26.164Z,78.94
2022-09-05T22:18:17.068Z,79.60
2022-09-05T22:20:43.822Z,79.85
2022-09-05T22:23:11.406Z,79.65
2022-09-05T22:25:38.677Z,80.72
2022-09-05T22:28:08.458Z,80.43
2022-09-05T22:30:35.697Z,80.83
2022-09-05T22:33:05.451Z,80.83
2022-09-05T22:35:33.316Z,81.09
2022-09-05T22:38:10.876Z,81.13
2022-09-05T22:40:40.060Z,81.30
2022-09-05T22:43:07.920Z,81.28
2022-09-05T22:45:35.919Z,81.27
2022-09-05T22:48:09.798Z,81.77
2022-09-05T22:50:37.275Z,81.60
2022-09-05T22:53:06.973Z,82.60
2022-09-05T22:55:35.728Z,82.58
2022-09-05T22:58:03.567Z,81.82
2022-09-05T23:00:30.684Z,82.10
2022-09-05T23:02:58.309Z,84.48
2022-09-05T23:05:25.522Z,88.03
2022-09-05T23:07:53.310Z,88.65
2022-09-05T23:10:20.429Z,88.00
2022-09-05T23:12:47.722Z,87.36
2022-09-05T23:15:14.953Z,88.12
2022-09-05T23:17:42.119Z,87.28
2022-09-05T23:20:10.898Z,86.50
2022-09-05T23:22:38.130Z,86.63
2022-09-05T23:25:07.296Z,87.77
2022-09-05T23:27:37.907Z,87.57
2022-09-05T23:30:05.760Z,88.52
2022-09-05T23:32:32.896Z,87.84
2022-09-05T23:35:00.001Z,87.23
2022-09-05T23:37:27.128Z,87.38
2022-09-05T23:39:54.249Z,87.14
2022-09-05T23:42:21.724Z,87.41
2022-09-05T23:44:48.818Z,87.72
2022-09-05T23:47:16.777Z,87.21
2022-09-05T23:49:43.900Z,86.88
2022-09-05T23:52:11.025Z,87.45
2022-09-05T23:54:38.549Z,87.10
2022-09-05T23:57:05.679Z,87.26
2022-09-05T23:59:33.228Z,87.04
